createdAt,value
2022-11-23T00:13:25.734Z,99142.88
2022-11-23T00:15:53.032Z,99147.13
2022-11-23T00:18:20.222Z,99146.25
2022-11-23T00:20:47.567Z,99140.94
2022-11-23T00:23:14.746Z,99153.84
2022-11-23T00:25:45.849Z,99152.91
2022-11-23T00:28:13.232Z,99156.31
2022-11-23T00:30:40.607Z,99159.75
2022-11-23T00:33:07.880Z,99154.44
2022-11-23T00:35:35.405Z,99158.78
2022-11-23T00:38:02.616Z,99153.53
2022-11-23T00:40:29.957Z,99149.97
2022-11-23T00:42:57.015Z,99149.09
2022-11-23T00:45:24.169Z,99151.69
2022-11-23T00:47:53.094Z,99156.81
2022-11-23T00:50:22.554Z,99154.16
2022-11-23T00:52:51.316Z,99156.78
2022-11-23T00:55:18.954Z,99148.88
2022-11-23T00:57:46.271Z,99158.41
2022-11-23T01:00:13.916Z,99167.88
2022-11-23T01:02:41.288Z,99169.63
2022-11-23T01:05:08.787Z,99168.75
2022-11-23T01:07:36.214Z,99167.81
2022-11-23T01:10:04.206Z,99166.09
2022-11-23T01:12:33.538Z,99166.94
2022-11-23T01:15:00.930Z,99172.16
2022-11-23T01:17:29.241Z,99179.97
2022-11-23T01:19:56.290Z,99186.88
2022-11-23T01:22:23.484Z,99186.03
2022-11-23T01:24:51.106Z,99179.97
2022-11-23T01:27:18.229Z,99167.81
2022-11-23T01:29:45.727Z,99167.78
2022-11-23T01:32:12.952Z,99173.88
2022-11-23T01:34:40.165Z,99166.03
2022-11-23T01:37:07.516Z,99167.72
2022-11-23T01:39:34.873Z,99177.31
2022-11-23T01:42:02.240Z,99184.22
2022-11-23T01:44:31.895Z,99179.97
2022-11-23T01:47:01.370Z,99183.38
2022-11-23T01:49:36.025Z,99184.25
2022-11-23T01:52:16.010Z,99179.91
2022-11-23T01:54:53.774Z,99186.81
2022-11-23T01:57:36.667Z,99186.81
2022-11-23T02:00:05.274Z,99176.38
2022-11-23T02:02:44.901Z,99180.69
2022-11-23T02:05:14.981Z,99179.88
2022-11-23T02:07:46.173Z,99185.91
2022-11-23T02:10:15.978Z,99189.38
2022-11-23T02:12:43.153Z,99179.84
2022-11-23T02:15:12.633Z,99190.22
2022-11-23T02:17:42.290Z,99186.75
2022-11-23T02:20:16.164Z,99184.13
2022-11-23T02:22:57.519Z,99184.09
2022-11-23T02:25:45.569Z,99193.63
2022-11-23T02:28:17.362Z,99199.69
2022-11-23T02:30:47.489Z,99201.41
2022-11-23T02:33:14.776Z,99202.25
2022-11-23T02:36:15.061Z,99204.88
2022-11-23T02:38:42.428Z,99204.94
2022-11-23T02:41:09.657Z,99202.34
2022-11-23T02:43:37.822Z,99211.09
2022-11-23T02:46:05.569Z,99214.56
2022-11-23T02:48:32.932Z,99220.72
2022-11-23T02:51:03.334Z,99215.59
2022-11-23T02:53:31.930Z,99216.44
2022-11-23T02:55:59.011Z,99218.25
2022-11-23T02:58:26.904Z,99218.25
2022-11-23T03:00:54.229Z,99229.53
2022-11-23T03:03:23.064Z,99231.31
2022-11-23T03:05:49.940Z,99235.69
2022-11-23T03:08:17.483Z,99229.63
2022-11-23T03:10:44.842Z,99220.06
2022-11-23T03:13:12.096Z,99210.50
2022-11-23T03:15:40.703Z,99213.97
2022-11-23T03:18:09.129Z,99214.84
2022-11-23T03:20:36.289Z,99214.84
2022-11-23T03:23:04.862Z,99213.09
2022-11-23T03:25:32.738Z,99215.72
2022-11-23T03:27:59.772Z,99214.94
2022-11-23T03:30:27.645Z,99222.69
2022-11-23T03:32:54.855Z,99232.22
2022-11-23T03:35:23.187Z,99229.59
2022-11-23T03:38:15.161Z,99240.91
2022-11-23T03:40:45.849Z,99241.78
2022-11-23T03:43:19.828Z,99236.56
2022-11-23T03:45:47.494Z,99236.56
2022-11-23T03:48:15.348Z,99242.63
2022-11-23T03:50:44.030Z,99239.16
2022-11-23T03:53:11.544Z,99239.22
2022-11-23T03:55:38.778Z,99234.81
2022-11-23T03:58:06.009Z,99227.94
2022-11-23T04:00:35.618Z,99235.72
2022-11-23T04:03:03.572Z,99245.34
2022-11-23T04:05:49.457Z,99242.72
2022-11-23T04:08:36.388Z,99245.34
2022-11-23T04:11:08.999Z,99240.13
2022-11-23T04:13:38.510Z,99240.97
2022-11-23T04:16:07.412Z,99233.22
2022-11-23T04:18:34.860Z,99230.59
2022-11-23T04:21:01.972Z,99227.94
2022-11-23T04:23:29.147Z,99226.19
2022-11-23T04:25:56.554Z,99224.53
2022-11-23T04:28:24.422Z,99221.00
2022-11-23T04:30:53.194Z,99226.16
2022-11-23T04:33:20.139Z,99231.34
2022-11-23T04:35:47.328Z,99231.31
2022-11-23T04:38:15.004Z,99226.97
2022-11-23T04:40:43.254Z,99229.56
2022-11-23T04:43:10.952Z,99227.84
2022-11-23T04:45:40.789Z,99227.91
2022-11-23T04:48:14.047Z,99227.03
2022-11-23T04:50:46.498Z,99226.16
2022-11-23T04:53:17.977Z,99221.81
2022-11-23T04:55:47.688Z,99216.59
2022-11-23T04:58:16.370Z,99225.28
2022-11-23T05:00:43.447Z,99215.72
2022-11-23T05:03:12.661Z,99216.56
2022-11-23T05:05:42.024Z,99220.06
2022-11-23T05:08:10.184Z,99226.97
2022-11-23T05:10:57.909Z,99233.06
2022-11-23T05:13:26.368Z,99229.56
2022-11-23T05:15:53.869Z,99228.72
2022-11-23T05:18:26.047Z,99239.09
2022-11-23T05:20:53.806Z,99247.84
2022-11-23T05:23:21.496Z,99241.72
2022-11-23T05:25:50.473Z,99245.19
2022-11-23T05:28:39.671Z,99261.72
2022-11-23T05:31:09.751Z,99269.50
2022-11-23T05:33:37.555Z,99273.00
2022-11-23T05:36:06.683Z,99267.78
2022-11-23T05:38:37.824Z,99269.50
2022-11-23T05:41:11.532Z,99276.44
2022-11-23T05:43:41.890Z,99270.34
2022-11-23T05:46:12.471Z,99255.56
2022-11-23T05:48:39.994Z,99266.88
2022-11-23T05:51:11.738Z,99274.63
2022-11-23T05:53:44.850Z,99274.63
2022-11-23T05:56:18.778Z,99272.94
2022-11-23T05:59:08.409Z,99272.00
2022-11-23T06:01:38.140Z,99287.66
2022-11-23T06:04:07.668Z,99285.91
2022-11-23T06:06:42.108Z,99285.00
2022-11-23T06:09:10.289Z,99287.59
2022-11-23T06:11:40.011Z,99300.81
2022-11-23T06:14:14.396Z,99307.72
2022-11-23T06:16:44.174Z,99303.34
2022-11-23T06:19:43.908Z,99309.41
2022-11-23T06:22:12.617Z,99307.63
2022-11-23T06:24:54.742Z,99303.25
2022-11-23T06:27:40.649Z,99302.38
2022-11-23T06:30:16.244Z,99297.09
2022-11-23T06:32:43.736Z,99310.25
2022-11-23T06:35:10.691Z,99314.56
2022-11-23T06:37:40.506Z,99314.69
2022-11-23T06:40:08.383Z,99318.16
2022-11-23T06:42:39.973Z,99330.44
2022-11-23T06:45:15.124Z,99320.19
2022-11-23T06:47:43.912Z,99308.00
2022-11-23T06:50:11.560Z,99304.56
2022-11-23T06:52:39.158Z,99307.22
2022-11-23T06:55:06.443Z,99304.56
2022-11-23T06:57:34.508Z,99299.31
2022-11-23T07:00:02.532Z,99301.97
2022-11-23T07:02:34.667Z,99301.91
2022-11-23T07:05:01.767Z,99302.72
2022-11-23T07:07:30.901Z,99308.81
2022-11-23T07:10:08.823Z,99310.69
2022-11-23T07:12:44.319Z,99309.91
2022-11-23T07:15:14.052Z,99302.09
2022-11-23T07:17:42.318Z,99310.72
2022-11-23T07:20:12.693Z,99311.59
2022-11-23T07:22:40.452Z,99328.09
2022-11-23T07:25:08.457Z,99328.09
2022-11-23T07:27:35.462Z,99328.84
2022-11-23T07:30:03.590Z,99332.28
2022-11-23T07:32:30.871Z,99342.66
2022-11-23T07:34:57.901Z,99339.19
2022-11-23T07:37:26.305Z,99328.84
2022-11-23T07:39:58.139Z,99332.41
2022-11-23T07:42:36.955Z,99341.06
2022-11-23T07:45:09.494Z,99336.72
2022-11-23T07:47:38.770Z,99340.16
2022-11-23T07:50:10.880Z,99330.50
2022-11-23T07:52:38.842Z,99346.16
2022-11-23T07:55:06.564Z,99326.28
2022-11-23T07:57:33.656Z,99334.81
2022-11-23T08:00:00.895Z,99344.34
2022-11-23T08:02:28.303Z,99351.41
2022-11-23T08:04:55.767Z,99355.59
2022-11-23T08:07:22.693Z,99364.28
2022-11-23T08:09:50.645Z,99359.91
2022-11-23T08:12:17.552Z,99369.41
2022-11-23T08:14:44.601Z,99364.19
2022-11-23T08:17:11.544Z,99378.94
2022-11-23T08:19:38.524Z,99374.81
2022-11-23T08:22:05.510Z,99373.94
2022-11-23T08:24:33.117Z,99374.03
2022-11-23T08:27:00.592Z,99378.34
2022-11-23T08:29:28.106Z,99385.28
2022-11-23T08:31:55.183Z,99381.78
2022-11-23T08:34:22.324Z,99373.84
2022-11-23T08:36:49.255Z,99364.16
2022-11-23T08:39:18.439Z,99360.53
2022-11-23T08:41:45.981Z,99358.66
2022-11-23T08:44:13.005Z,99355.94
2022-11-23T08:46:40.011Z,99354.06
2022-11-23T08:49:07.506Z,99333.94
2022-11-23T08:51:34.695Z,99340.75
2022-11-23T08:54:01.939Z,99345.88
2022-11-23T08:56:29.354Z,99334.47
2022-11-23T08:58:56.325Z,99330.06
2022-11-23T09:01:23.624Z,99330.72
2022-11-23T09:03:50.722Z,99333.19
2022-11-23T09:06:17.740Z,99326.16
2022-11-23T09:08:44.621Z,99325.06
2022-11-23T09:11:14.338Z,99329.31
2022-11-23T09:13:41.549Z,99331.84
2022-11-23T09:16:08.920Z,99323.31
2022-11-23T09:18:36.790Z,99331.53
2022-11-23T09:21:05.777Z,99325.59
2022-11-23T09:23:32.795Z,99328.22
2022-11-23T09:26:00.650Z,99332.94
2022-11-23T09:28:28.648Z,99311.94
2022-11-23T09:30:56.972Z,99313.59
2022-11-23T09:33:26.123Z,99311.75
2022-11-23T09:36:04.236Z,99309.03
2022-11-23T09:38:55.581Z,99292.34
2022-11-23T09:41:30.807Z,99288.72
2022-11-23T09:44:08.144Z,99290.25
2022-11-23T09:47:01.400Z,99290.09
2022-11-23T09:49:33.560Z,99281.31
2022-11-23T09:52:00.833Z,99301.47
2022-11-23T09:54:36.648Z,99297.91
2022-11-23T09:57:05.062Z,99287.28
2022-11-23T09:59:57.663Z,99296.94
2022-11-23T10:02:28.977Z,99300.47
2022-11-23T10:04:58.065Z,99291.53
2022-11-23T10:07:40.831Z,99289.84
2022-11-23T10:10:22.909Z,99296.13
2022-11-23T10:12:56.102Z,99282.28
2022-11-23T10:15:38.350Z,99291.88
2022-11-23T10:18:20.279Z,99282.38
2022-11-23T10:20:53.466Z,99284.38
2022-11-23T10:23:46.713Z,99289.66
2022-11-23T10:26:17.445Z,99281.78
2022-11-23T10:28:46.507Z,99294.28
2022-11-23T10:31:16.151Z,99289.78
2022-11-23T10:34:11.876Z,99279.31
2022-11-23T10:36:40.161Z,99281.84
2022-11-23T10:39:27.705Z,99285.97
2022-11-23T10:42:03.623Z,99278.09
2022-11-23T10:44:37.060Z,99278.88
2022-11-23T10:47:05.619Z,99270.00
2022-11-23T10:49:34.654Z,99283.78
2022-11-23T10:52:26.158Z,99281.09
2022-11-23T10:54:55.526Z,99279.22
2022-11-23T10:57:28.471Z,99286.03
2022-11-23T11:00:14.825Z,99292.84
2022-11-23T11:02:41.938Z,99292.75
2022-11-23T11:06:08.709Z,99281.25
2022-11-23T11:08:34.869Z,99278.56
2022-11-23T11:11:21.539Z,99277.56
2022-11-23T11:13:49.972Z,99268.88
2022-11-23T11:16:35.726Z,99267.91
2022-11-23T11:19:28.532Z,99262.56
2022-11-23T11:21:57.065Z,99267.72
2022-11-23T11:24:33.935Z,99261.56
2022-11-23T11:27:12.110Z,99270.19
2022-11-23T11:29:45.348Z,99263.19
2022-11-23T11:32:19.849Z,99251.78
2022-11-23T11:34:52.648Z,99266.53
2022-11-23T11:37:22.888Z,99280.47
2022-11-23T11:39:58.171Z,99287.59
2022-11-23T11:42:36.832Z,99269.28
2022-11-23T11:45:07.242Z,99264.19
2022-11-23T11:47:42.904Z,99267.63
2022-11-23T11:50:32.050Z,99266.88
2022-11-23T11:53:14.760Z,99263.50
2022-11-23T11:55:47.780Z,99261.00
2022-11-23T11:58:17.359Z,99261.09
2022-11-23T12:00:47.885Z,99279.41
2022-11-23T12:03:15.089Z,99274.28
2022-11-23T12:05:42.258Z,99268.25
2022-11-23T12:08:15.676Z,99273.69
2022-11-23T12:16:31.283Z,99285.28
2022-11-23T12:19:19.170Z,99288.31
2022-11-23T12:22:08.478Z,99293.88
2022-11-23T17:02:29.476Z,99279.31
2022-11-23T17:04:56.994Z,99275.78
2022-11-23T17:07:24.222Z,99281.84
2022-11-23T17:09:51.482Z,99276.56
2022-11-23T17:12:20.613Z,99275.69
2022-11-23T17:14:49.875Z,99261.75
2022-11-23T17:17:23.291Z,99264.34
2022-11-23T17:19:52.834Z,99273.84
2022-11-23T17:22:20.584Z,99278.09
2022-11-23T17:24:49.600Z,99267.63
2022-11-23T17:27:21.996Z,99268.47
2022-11-23T17:29:55.969Z,99272.72
2022-11-23T17:32:23.130Z,99276.19
2022-11-23T17:34:50.220Z,99279.59
2022-11-23T17:37:24.376Z,99290.84
2022-11-23T17:39:51.479Z,99296.03
2022-11-23T17:42:19.030Z,99296.84
2022-11-23T17:44:46.922Z,99289.97
2022-11-23T17:47:28.934Z,99287.41
2022-11-23T17:49:56.919Z,99291.69
2022-11-23T17:52:24.916Z,99282.97
2022-11-23T17:54:52.365Z,99278.66
2022-11-23T17:57:23.661Z,99267.34
2022-11-23T17:59:51.147Z,99262.13
2022-11-23T18:02:19.613Z,99260.41
2022-11-23T18:04:47.959Z,99261.28
2022-11-23T18:07:16.409Z,99265.66
2022-11-23T18:09:43.679Z,99258.66
2022-11-23T18:12:11.246Z,99249.13
2022-11-23T18:14:38.899Z,99251.69
2022-11-23T18:17:06.328Z,99257.72
2022-11-23T18:19:33.896Z,99250.75
2022-11-23T18:22:01.145Z,99252.50
2022-11-23T18:24:28.302Z,99256.78
2022-11-23T18:26:55.464Z,99262.91
2022-11-23T18:29:22.612Z,99251.59
2022-11-23T18:31:49.787Z,99252.50
2022-11-23T18:34:16.880Z,99250.78
2022-11-23T18:36:44.161Z,99251.72
2022-11-23T18:39:11.353Z,99251.69
2022-11-23T18:41:38.318Z,99245.56
2022-11-23T18:44:05.620Z,99237.75
2022-11-23T18:46:33.362Z,99232.69
2022-11-23T18:49:00.512Z,99230.13
2022-11-23T18:51:27.770Z,99239.63
2022-11-23T18:53:55.760Z,99232.63
2022-11-23T18:56:23.040Z,99230.03
2022-11-23T18:58:50.351Z,99236.97
2022-11-23T19:01:22.965Z,99225.66
2022-11-23T19:03:52.905Z,99226.50
2022-11-23T19:06:22.601Z,99223.88
2022-11-23T19:08:53.674Z,99222.13
2022-11-23T19:11:23.506Z,99225.63
2022-11-23T19:13:56.282Z,99239.50
2022-11-23T19:16:24.490Z,99231.66
2022-11-23T19:18:55.933Z,99227.34
2022-11-23T19:21:24.970Z,99218.72
2022-11-23T19:23:54.190Z,99231.66
2022-11-23T19:26:21.783Z,99230.78
2022-11-23T19:28:48.629Z,99230.75
2022-11-23T19:31:15.800Z,99230.78
2022-11-23T19:33:44.582Z,99220.44
2022-11-23T19:36:14.866Z,99204.81
2022-11-23T19:38:42.291Z,99208.22
2022-11-23T19:41:11.022Z,99203.03
2022-11-23T19:43:38.364Z,99201.25
2022-11-23T19:46:07.174Z,99205.63
2022-11-23T19:48:34.541Z,99210.84
2022-11-23T19:51:04.448Z,99205.63
2022-11-23T19:53:36.450Z,99202.22
2022-11-23T19:56:14.424Z,99199.59
2022-11-23T19:58:42.390Z,99200.47
2022-11-23T20:01:17.193Z,99205.66
2022-11-23T20:03:48.946Z,99211.75
2022-11-23T20:06:26.307Z,99221.22
2022-11-23T20:08:58.393Z,99222.09
2022-11-23T20:11:27.392Z,99218.63
2022-11-23T20:13:55.295Z,99220.28
2022-11-23T20:16:23.872Z,99221.16
2022-11-23T20:18:57.035Z,99215.88
2022-11-23T20:21:24.799Z,99227.13
2022-11-23T20:24:04.375Z,99214.97
2022-11-23T20:26:34.211Z,99219.28
2022-11-23T20:29:01.276Z,99219.22
2022-11-23T20:31:30.382Z,99214.88
2022-11-23T20:33:57.671Z,99216.63
2022-11-23T20:36:30.443Z,99220.97
2022-11-23T20:38:58.470Z,99234.81
2022-11-23T20:41:31.354Z,99233.13
2022-11-23T20:44:07.098Z,99218.31
2022-11-23T20:49:22.062Z,99216.53
2022-11-23T20:51:48.882Z,99213.16
2022-11-23T20:54:15.896Z,99216.69
2022-11-23T20:56:42.993Z,99217.50
2022-11-23T20:59:12.441Z,99213.16
2022-11-23T21:01:42.201Z,99214.91
2022-11-23T21:04:11.237Z,99218.44
2022-11-23T21:06:39.806Z,99204.59
2022-11-23T21:09:09.068Z,99198.50
2022-11-23T21:12:08.608Z,99200.22
2022-11-23T21:14:35.858Z,99208.06
2022-11-23T21:17:03.050Z,99210.63
2022-11-23T21:19:41.856Z,99217.59
2022-11-23T21:22:11.112Z,99222.00
2022-11-23T21:24:38.301Z,99208.97
2022-11-23T21:27:07.622Z,99218.56
2022-11-23T21:29:34.894Z,99210.66
2022-11-23T21:32:01.801Z,99209.78
2022-11-23T21:34:30.105Z,99213.25
2022-11-23T21:36:58.019Z,99215.91
2022-11-23T21:39:25.326Z,99221.16
2022-11-23T21:41:54.133Z,99219.44
2022-11-23T21:44:22.980Z,99228.91
2022-11-23T21:46:50.775Z,99224.53
2022-11-23T21:49:17.703Z,99224.50
2022-11-23T21:51:45.906Z,99222.78
2022-11-23T21:54:16.652Z,99223.53
2022-11-23T21:56:46.876Z,99215.81
2022-11-23T21:59:14.159Z,99208.91
2022-11-23T22:01:58.718Z,99214.94
2022-11-23T22:04:26.477Z,99197.50
2022-11-23T22:06:53.647Z,99196.59
2022-11-23T22:09:20.770Z,99190.66
2022-11-23T22:11:47.847Z,99179.28
2022-11-23T22:14:16.546Z,99170.63
2022-11-23T22:16:56.920Z,99169.69
2022-11-23T22:19:23.977Z,99145.47
2022-11-23T22:21:50.986Z,99145.44
2022-11-23T22:24:19.616Z,99143.00
2022-11-23T22:26:48.025Z,99147.31
2022-11-23T22:29:15.904Z,99151.66
2022-11-23T22:31:43.891Z,99154.22
2022-11-23T22:34:13.411Z,99148.91
2022-11-23T22:36:41.017Z,99138.56
2022-11-23T22:39:08.918Z,99134.94
2022-11-23T22:41:37.372Z,99142.88
2022-11-23T22:44:07.777Z,99146.22
2022-11-23T22:46:35.842Z,99136.59
2022-11-23T22:49:03.164Z,99138.34
2022-11-23T22:51:30.369Z,99133.91
2022-11-23T22:53:59.754Z,99136.56
2022-11-23T22:56:28.172Z,99127.03
2022-11-23T22:58:55.285Z,99136.53
2022-11-23T23:01:26.571Z,99143.38
2022-11-23T23:03:55.877Z,99134.53
2022-11-23T23:06:25.582Z,99138.13
2022-11-23T23:08:56.162Z,99134.66
2022-11-23T23:11:24.124Z,99138.13
2022-11-23T23:13:51.189Z,99138.91
2022-11-23T23:16:18.950Z,99140.69
2022-11-23T23:18:46.074Z,99153.59
2022-11-23T23:21:15.673Z,99157.84
2022-11-23T23:23:45.126Z,99157.69
2022-11-23T23:26:13.779Z,99170.69
2022-11-23T23:28:41.303Z,99174.94
2022-11-23T23:31:11.005Z,99180.06
2022-11-23T23:33:38.421Z,99166.94
2022-11-23T23:36:05.800Z,99177.28
2022-11-23T23:38:33.129Z,99171.91
2022-11-23T23:41:01.092Z,99159.72
2022-11-23T23:43:29.283Z,99162.31
2022-11-23T23:46:01.074Z,99158.00
2022-11-23T23:48:34.042Z,99157.22
2022-11-23T23:51:14.596Z,99139.03
2022-11-23T23:53:42.201Z,99132.28
2022-11-23T23:56:16.717Z,99130.44
2022-11-23T23:58:44.200Z,99116.53
